Startpagina
METAR-TAF:

METAR-TAF

Vliegvelden :

Abu Dhabi International Airport

Abu Dhabi, Verenigde Arabische Emiraten

breedte: 24-26N, lengte: 054-39E, hoogte: 16 m

Actueel weer

Dit bericht is 1 uur en het 13 minuten geleden gemaakt, om 20:00 UTC
Wind 6 kt uit het oostnoordoosten
Temperatuur 24°C
Vochtigheid 69%
Druk 1016 hPa
Zicht 10 km of meer
geen wolken onder 1500 m en geen cumulonimbus

METAR: OMAA 232000Z 06006KT CAVOK 24/18 Q1016 NOSIG

Tijdstip: 01:13 (21:13 UTC)

Verwachting

Dit bericht is 4 uur en het 13 minuten geleden gemaakt, om 17:00 UTC
Verwachting geldig van 23 om 18 UTC tot 25 om 00 UTC
Wind 5 kt uit het oostnoordoosten
Zicht: 8000 m
Kans 30%
van 24 om 00 UTC tot 24 om 04 UTC
Zicht: 4000 m
Heiigheid
Wijzigt naar
van 24 om 10 UTC tot 24 om 12 UTC
Wind 9 kt uit het noordnoordwesten
Wijzigt naar
van 24 om 16 UTC tot 24 om 18 UTC
Wind 6 kt uit het noordoosten

TAF: OMAA 231700Z 2318/2500 06005KT 8000 NSC PROB30 2400/2404 4000 HZ BECMG 2410/2412 34009KT BECMG 2416/2418 05006KT

Waarnemingen en weersverwachtingen van meer dan 4000 vliegvelden (METAR en TAF).

De beschikbare stations zijn de gele en rode punten op de kaart.

Ga met uw muis naar het station om de naam te zien.

Klik dan om waarnemingen en weersverwachtingen te zien.

kaart wijzigen: klik op de groene knoppen met een zwart kruis om in te zoomen, op de groene knop met een streepje om uit te zoomen of op de groene pijlen voor aangrenzende kaarten.


METAR-TAF: